DTTX

Sfax Thyna International Airport

Sfax, Tunisia
METAR DTTX 240100Z 31007KT 9999 SCT020 23/20 Q1019 NOSIG
Observed Flight Rules
Sep-24 @ 01:00 UTC (3 hours ago) Visual Flight Rules
Wind Visibility Clouds
310° at 7 knots 10,000+ meters
  • Scattered at 2,000' AGL
Temperatures Readings
Current 23°C / 73°F
Dewpoint 20°C / 68°F
Humidity 83%
Altimeter 30.09" Hg
Pressure 1019 hPa
Elevation 23
METAR DTTX 240100Z 31007KT 9999 SCT020 23/20 Q1019 NOSIG
Observed Flight Rules
Sep-24 @ 01:00 UTC
(3 hours ago)
VFR
Wind Visibility
310° at 7 knots 10,000+ meters
Clouds
  • Scattered at 2,000' AGL
Temperature Dewpoint
23°C / 73°F 20°C / 68°F
Humidity Altimeter Pressure
83% 30.09" Hg 1019 hPa